Time;durP1;ratioP1;P1;durP2;ratioP2;P2;SDS_P1;SDS_P2;PMS_P1;PMS_P2;Temp;Humidity;BMP_temperature;BMP_pressure;BME280_temperature;BME280_humidity;BME280_pressure;Samples;Min_cycle;Max_cycle;Signal;HPM_P1;HPM_P2
2023/01/09 00:01:44;;;;;;;13.02;8.43;;;;;;;5.49;100.00;99519.16;4890846;29;20673;-71
2023/01/09 00:04:14;;;;;;;9.75;8.65;;;;;;;5.48;100.00;99522.88;4897776;29;20190;-71
2023/01/09 00:06:45;;;;;;;14.48;10.18;;;;;;;5.48;100.00;99509.47;4898522;29;20194;-70
2023/01/09 00:09:14;;;;;;;17.73;11.85;;;;;;;5.44;100.00;99520.81;4883147;29;20217;-72
2023/01/09 00:11:45;;;;;;;13.98;9.20;;;;;;;5.35;100.00;99509.44;4880998;29;20672;-71
2023/01/09 00:14:14;;;;;;;13.63;9.98;;;;;;;5.30;100.00;99513.75;4881798;29;20319;-70
2023/01/09 00:16:43;;;;;;;13.10;9.10;;;;;;;5.13;100.00;99508.72;4896101;29;20200;-70
2023/01/09 00:19:13;;;;;;;12.65;9.38;;;;;;;5.09;100.00;99506.66;4896522;29;20571;-70
2023/01/09 00:21:42;;;;;;;12.20;7.55;;;;;;;5.12;100.00;99511.63;4897341;29;20206;-72
2023/01/09 00:24:11;;;;;;;12.27;9.05;;;;;;;5.09;100.00;99504.78;4895888;29;20216;-70
2023/01/09 00:26:40;;;;;;;12.70;8.77;;;;;;;5.24;100.00;99500.13;4896096;29;20745;-71
2023/01/09 00:29:12;;;;;;;13.50;9.55;;;;;;;5.14;100.00;99494.31;4896436;29;20204;-71
2023/01/09 00:31:41;;;;;;;13.65;8.50;;;;;;;5.24;100.00;99491.22;4897510;29;20275;-70
2023/01/09 00:34:10;;;;;;;12.70;10.55;;;;;;;5.28;100.00;99483.63;4880544;29;20666;-70
2023/01/09 00:36:39;;;;;;;12.05;10.20;;;;;;;5.31;100.00;99492.09;4897236;29;20740;-71
2023/01/09 00:39:08;;;;;;;12.07;9.38;;;;;;;5.28;100.00;99489.81;4880449;29;20613;-70
2023/01/09 00:41:40;;;;;;;12.50;9.10;;;;;;;5.28;100.00;99481.75;4881310;29;20672;-70
2023/01/09 00:44:15;;;;;;;13.90;9.68;;;;;;;5.15;100.00;99479.03;4905017;29;20210;-70
2023/01/09 00:46:49;;;;;;;14.73;9.75;;;;;;;5.17;100.00;99477.81;4898103;29;20827;-70
2023/01/09 00:49:19;;;;;;;13.20;9.98;;;;;;;5.11;100.00;99467.91;4881445;29;20245;-69
2023/01/09 00:51:48;;;;;;;14.82;9.57;;;;;;;5.13;100.00;99470.38;4897041;29;20206;-71
2023/01/09 00:54:19;;;;;;;13.65;10.05;;;;;;;5.14;100.00;99474.69;4903902;29;20290;-70
2023/01/09 00:56:50;;;;;;;14.85;10.48;;;;;;;5.20;100.00;99465.84;4895584;29;20206;-70
2023/01/09 00:59:20;;;;;;;15.43;10.10;;;;;;;5.07;100.00;99461.28;4884237;29;20221;-71
2023/01/09 01:01:49;;;;;;;16.65;11.63;;;;;;;5.18;100.00;99463.38;4897800;29;20202;-71
2023/01/09 01:09:51;;;;;;;17.15;12.60;;;;;;;5.05;100.00;99444.56;4901862;29;20284;-71
2023/01/09 01:12:20;;;;;;;16.40;12.57;;;;;;;5.11;100.00;99445.63;4900084;29;20225;-70
2023/01/09 01:14:52;;;;;;;14.95;11.43;;;;;;;5.05;100.00;99454.47;4908885;29;20222;-70
2023/01/09 01:17:21;;;;;;;17.42;12.65;;;;;;;5.19;100.00;99445.44;4883549;29;20210;-71
2023/01/09 01:19:55;;;;;;;15.05;10.10;;;;;;;5.22;100.00;99447.72;4882638;29;20206;-70
2023/01/09 01:22:24;;;;;;;17.05;10.20;;;;;;;5.13;100.00;99443.56;4883116;29;20205;-70
2023/01/09 01:24:53;;;;;;;15.85;10.65;;;;;;;5.06;100.00;99440.03;4882732;29;20257;-72
2023/01/09 01:27:22;;;;;;;14.70;11.30;;;;;;;5.01;100.00;99446.00;4882765;29;20209;-68
2023/01/09 01:29:52;;;;;;;16.10;10.77;;;;;;;5.04;100.00;99436.72;4882665;29;20234;-70
2023/01/09 01:32:22;;;;;;;17.20;12.75;;;;;;;5.00;100.00;99435.47;4882987;29;20270;-70
2023/01/09 01:34:51;;;;;;;13.95;11.15;;;;;;;4.94;100.00;99433.63;4899733;29;20772;-70
2023/01/09 01:37:20;;;;;;;19.55;11.00;;;;;;;5.01;100.00;99429.09;4900604;29;20257;-69
2023/01/09 01:39:51;;;;;;;17.10;12.02;;;;;;;5.03;100.00;99432.41;4896884;29;20681;-69
2023/01/09 01:42:20;;;;;;;18.52;12.68;;;;;;;4.95;100.00;99420.00;4882993;29;20297;-69
2023/01/09 01:45:01;;;;;;;15.05;10.52;;;;;;;4.87;100.00;99430.91;4893921;29;20260;-69
2023/01/09 01:47:36;;;;;;;16.58;12.50;;;;;;;4.92;100.00;99431.13;4882849;29;20223;-70
2023/01/09 01:50:13;;;;;;;19.40;10.93;;;;;;;5.02;100.00;99425.38;4898357;29;20296;-72
2023/01/09 01:52:44;;;;;;;16.02;11.55;;;;;;;4.95;100.00;99417.31;4907700;29;20234;-71
2023/01/09 01:55:17;;;;;;;18.52;11.50;;;;;;;5.11;100.00;99413.44;4906573;29;20222;-70
2023/01/09 01:57:49;;;;;;;16.42;12.00;;;;;;;5.15;100.00;99409.31;4890845;29;20721;-71
2023/01/09 02:00:25;;;;;;;16.98;11.65;;;;;;;5.15;100.00;99398.59;4892214;29;20284;-70
2023/01/09 02:02:54;;;;;;;20.50;13.55;;;;;;;5.22;100.00;99394.09;4902137;29;20212;-70
2023/01/09 02:08:55;;;;;;;14.25;11.13;;;;;;;5.00;100.00;99395.25;4902382;29;20571;-70
2023/01/09 02:11:24;;;;;;;15.50;12.30;;;;;;;5.01;100.00;99387.03;4882100;29;20232;-70
2023/01/09 02:13:54;;;;;;;14.75;10.10;;;;;;;5.16;100.00;99381.50;4884155;29;20195;-71
2023/01/09 02:16:38;;;;;;;15.75;11.55;;;;;;;5.14;100.00;99380.84;4881754;29;20674;-70
2023/01/09 02:19:20;;;;;;;16.63;11.85;;;;;;;5.09;100.00;99381.47;4898550;29;20206;-70
2023/01/09 02:21:59;;;;;;;15.85;11.52;;;;;;;4.98;100.00;99392.81;4893507;29;20250;-70
2023/01/09 02:24:46;;;;;;;17.30;12.88;;;;;;;4.88;100.00;99397.72;4884510;29;20221;-70
2023/01/09 02:27:52;;;;;;;14.50;12.93;;;;;;;4.84;100.00;99401.00;4882309;29;20205;-69
2023/01/09 02:30:32;;;;;;;16.77;11.25;;;;;;;4.93;100.00;99389.06;4893847;29;20198;-70
2023/01/09 02:33:12;;;;;;;17.50;12.23;;;;;;;4.90;100.00;99395.66;4886351;29;20212;-70
2023/01/09 02:36:01;;;;;;;16.60;13.85;;;;;;;4.92;100.00;99388.25;4882622;29;20226;-71
2023/01/09 02:38:40;;;;;;;19.95;12.98;;;;;;;4.90;100.00;99395.66;4881891;29;20262;-69
2023/01/09 02:41:16;;;;;;;14.75;12.38;;;;;;;5.02;100.00;99393.22;4882998;29;20660;-71
2023/01/09 02:43:45;;;;;;;19.17;13.27;;;;;;;4.95;100.00;99384.31;4882494;29;20217;-70
2023/01/09 02:46:22;;;;;;;21.73;12.30;;;;;;;5.09;100.00;99392.19;4905545;29;20218;-70
2023/01/09 02:48:54;;;;;;;18.10;13.68;;;;;;;5.03;100.00;99397.56;4899994;29;20284;-70
2023/01/09 02:51:33;;;;;;;15.93;11.40;;;;;;;5.00;100.00;99397.94;4900785;29;20233;-69
2023/01/09 02:54:29;;;;;;;19.95;13.38;;;;;;;4.80;100.00;99396.03;4899845;29;20194;-70
2023/01/09 02:57:39;;;;;;;17.98;13.00;;;;;;;4.86;100.00;99389.03;4896906;29;20206;-69
2023/01/09 03:00:17;;;;;;;21.20;16.02;;;;;;;4.69;100.00;99391.28;4895375;29;20201;-70
2023/01/09 03:02:54;;;;;;;20.02;13.60;;;;;;;4.73;100.00;99379.13;4899364;29;20217;-70
2023/01/09 03:05:30;;;;;;;20.70;13.85;;;;;;;4.72;100.00;99380.13;4881344;29;20226;-70
2023/01/09 03:08:04;;;;;;;17.60;11.90;;;;;;;4.67;100.00;99379.91;4881548;29;20669;-70
2023/01/09 03:10:41;;;;;;;19.35;12.82;;;;;;;4.81;100.00;99386.97;4881810;29;20206;-71
2023/01/09 03:13:14;;;;;;;19.45;13.65;;;;;;;4.85;100.00;99378.50;4897076;29;20209;-70
2023/01/09 03:15:48;;;;;;;23.52;14.48;;;;;;;4.79;100.00;99375.63;4882667;29;20226;-71
2023/01/09 03:18:22;;;;;;;22.38;15.50;;;;;;;4.71;100.00;99375.81;4898182;29;20661;-71
2023/01/09 03:20:54;;;;;;;18.63;13.02;;;;;;;4.69;100.00;99372.50;4896711;29;20647;-71
2023/01/09 03:23:24;;;;;;;19.67;12.55;;;;;;;4.88;100.00;99372.78;4898162;29;20673;-70
2023/01/09 03:25:53;;;;;;;23.30;13.45;;;;;;;4.95;100.00;99370.91;4881345;29;20326;-71
2023/01/09 03:28:28;;;;;;;17.60;13.45;;;;;;;4.91;100.00;99369.69;4881218;29;20273;-70
2023/01/09 03:30:57;;;;;;;17.38;12.63;;;;;;;5.00;100.00;99363.91;4884823;29;20573;-71
2023/01/09 03:33:27;;;;;;;21.70;14.20;;;;;;;5.05;100.00;99358.78;4902340;29;20197;-71
2023/01/09 03:35:57;;;;;;;15.80;11.35;;;;;;;5.18;100.00;99358.00;4906677;29;20601;-71
2023/01/09 03:38:26;;;;;;;19.15;12.65;;;;;;;5.46;99.03;99353.25;4904416;29;20202;-70
2023/01/09 03:40:55;;;;;;;19.25;13.50;;;;;;;5.51;98.43;99341.91;4899248;29;20205;-70
2023/01/09 03:43:24;;;;;;;16.35;13.27;;;;;;;5.69;97.49;99340.22;4892837;29;20231;-70
2023/01/09 03:45:53;;;;;;;18.80;12.75;;;;;;;5.79;97.08;99337.13;4883423;29;20642;-70
2023/01/09 03:48:23;;;;;;;19.05;14.30;;;;;;;5.81;96.35;99328.88;4890407;29;20205;-70
2023/01/09 03:50:55;;;;;;;18.60;13.27;;;;;;;5.79;96.59;99330.91;4902336;29;20241;-69
2023/01/09 03:53:28;;;;;;;18.45;13.82;;;;;;;6.01;95.23;99341.22;4883891;29;20233;-69
2023/01/09 03:55:58;;;;;;;17.13;13.05;;;;;;;6.01;94.88;99325.13;4891253;29;20716;-70
2023/01/09 03:58:28;;;;;;;17.52;12.45;;;;;;;6.07;94.01;99339.56;4887245;29;20199;-71
2023/01/09 04:01:00;;;;;;;19.27;14.38;;;;;;;5.93;93.91;99328.03;4891548;29;20201;-70
2023/01/09 04:03:30;;;;;;;19.38;14.65;;;;;;;6.03;93.82;99330.28;4886393;29;20206;-70
2023/01/09 04:06:01;;;;;;;19.30;13.80;;;;;;;5.98;94.90;99327.41;4890170;29;20617;-71
2023/01/09 04:08:30;;;;;;;17.77;11.93;;;;;;;6.02;94.17;99317.88;4887469;29;20205;-71
2023/01/09 04:10:59;;;;;;;15.07;13.20;;;;;;;6.09;93.48;99326.75;4901055;29;20206;-70
2023/01/09 04:13:29;;;;;;;16.33;12.25;;;;;;;6.11;93.05;99317.44;4909168;29;20229;-70
2023/01/09 04:15:58;;;;;;;20.17;14.38;;;;;;;6.10;92.72;99317.66;4908493;29;20225;-70
2023/01/09 04:18:27;;;;;;;17.42;14.50;;;;;;;6.19;92.16;99308.34;4910539;29;20225;-71
2023/01/09 04:20:57;;;;;;;17.65;12.65;;;;;;;6.09;92.64;99302.59;4916137;29;20194;-70
2023/01/09 04:23:27;;;;;;;16.95;13.05;;;;;;;6.07;93.14;99312.72;4896468;29;20206;-70
2023/01/09 04:25:57;;;;;;;14.95;12.63;;;;;;;6.05;93.37;99298.69;4916735;29;20222;-69
2023/01/09 04:28:26;;;;;;;18.88;13.02;;;;;;;5.90;93.11;99308.84;4914703;29;20205;-71
2023/01/09 04:30:55;;;;;;;15.90;12.90;;;;;;;6.07;92.91;99296.59;4897769;29;20210;-69
2023/01/09 04:33:24;;;;;;;18.92;12.55;;;;;;;6.15;92.76;99304.41;4916276;29;20261;-69
2023/01/09 04:35:54;;;;;;;16.83;12.85;;;;;;;6.17;92.40;99305.03;4898702;29;20969;-70
2023/01/09 04:38:23;;;;;;;17.08;12.25;;;;;;;6.13;92.31;99301.13;4891381;29;20217;-71
2023/01/09 04:40:54;;;;;;;15.77;12.00;;;;;;;6.14;92.28;99297.41;4902632;29;20198;-71
2023/01/09 04:43:23;;;;;;;17.20;12.93;;;;;;;6.20;91.93;99296.53;4885672;29;20202;-71
2023/01/09 04:45:52;;;;;;;19.02;12.70;;;;;;;6.22;91.27;99289.09;4900551;29;20226;-71
2023/01/09 04:48:22;;;;;;;17.90;12.40;;;;;;;6.18;91.97;99287.06;4903589;29;20608;-70
2023/01/09 04:50:51;;;;;;;16.02;11.35;;;;;;;6.17;92.32;99288.91;4900250;29;20850;-70
2023/01/09 04:53:20;;;;;;;16.75;12.00;;;;;;;6.21;92.44;99271.34;4887156;29;20202;-70
2023/01/09 04:55:49;;;;;;;15.90;12.82;;;;;;;6.22;91.62;99282.91;4899494;29;20585;-70
2023/01/09 04:58:20;;;;;;;14.93;13.43;;;;;;;6.25;91.40;99280.59;4883610;29;20253;-70
2023/01/09 05:00:49;;;;;;;22.50;14.00;;;;;;;6.15;91.93;99280.22;4885597;29;20205;-70
2023/01/09 05:03:18;;;;;;;19.10;13.68;;;;;;;6.06;92.20;99284.19;4883205;29;20282;-70
2023/01/09 05:05:48;;;;;;;14.35;10.93;;;;;;;6.06;92.77;99273.47;4883022;29;20659;-70
2023/01/09 05:08:17;;;;;;;17.42;12.43;;;;;;;6.19;93.71;99276.13;4903226;29;20206;-70
2023/01/09 05:10:46;;;;;;;14.82;11.77;;;;;;;6.06;93.69;99278.81;4900182;29;20199;-70
2023/01/09 05:13:15;;;;;;;17.42;13.43;;;;;;;6.14;92.71;99289.34;4901449;29;20206;-71
2023/01/09 05:15:46;;;;;;;19.65;12.60;;;;;;;6.05;93.59;99282.56;4896786;29;20238;-69
2023/01/09 05:18:15;;;;;;;17.77;14.23;;;;;;;6.08;93.62;99276.78;4917284;29;20223;-70
2023/01/09 05:20:44;;;;;;;25.63;14.27;;;;;;;6.16;94.58;99273.84;4901030;29;20217;-70
2023/01/09 05:23:14;;;;;;;17.88;12.50;;;;;;;6.22;93.79;99277.53;4900106;29;20194;-70
2023/01/09 05:25:43;;;;;;;18.67;13.18;;;;;;;6.14;94.35;99270.56;4900926;29;20285;-70
2023/01/09 05:28:12;;;;;;;15.80;12.95;;;;;;;6.18;94.75;99269.09;4895073;29;20212;-71
2023/01/09 05:30:41;;;;;;;17.92;11.55;;;;;;;6.31;95.44;99265.50;4913355;29;20226;-70
2023/01/09 05:33:12;;;;;;;18.30;13.70;;;;;;;6.38;95.24;99266.31;4900372;29;20186;-70
2023/01/09 05:35:41;;;;;;;16.20;12.38;;;;;;;6.33;95.92;99268.81;4915090;29;20250;-71
2023/01/09 05:38:11;;;;;;;19.42;13.32;;;;;;;6.37;96.64;99268.16;4898609;29;20195;-70
2023/01/09 05:40:40;;;;;;;17.58;12.65;;;;;;;6.44;97.33;99266.25;4887360;29;20211;-69
2023/01/09 05:43:09;;;;;;;16.13;12.95;;;;;;;6.54;97.70;99250.50;4903958;29;20198;-70
2023/01/09 05:45:38;;;;;;;16.67;11.07;;;;;;;6.53;98.21;99262.28;4885645;29;20222;-70
2023/01/09 05:48:08;;;;;;;16.88;12.07;;;;;;;6.55;98.59;99249.47;4886189;29;20221;-71
2023/01/09 05:50:38;;;;;;;17.02;12.45;;;;;;;6.48;98.73;99247.88;4900499;29;20732;-70
2023/01/09 05:53:07;;;;;;;19.75;13.07;;;;;;;6.49;98.99;99250.31;4886120;29;20249;-70
2023/01/09 05:55:37;;;;;;;19.52;13.77;;;;;;;6.33;99.51;99258.91;4903800;29;20281;-69
2023/01/09 05:58:06;;;;;;;20.95;14.90;;;;;;;6.33;100.00;99253.53;4904773;29;20293;-72
2023/01/09 06:00:35;;;;;;;15.40;12.60;;;;;;;6.26;100.00;99259.94;4891165;29;20293;-70
2023/01/09 06:03:04;;;;;;;18.23;12.68;;;;;;;6.38;100.00;99256.41;4897768;29;20201;-70
2023/01/09 06:05:34;;;;;;;16.83;12.82;;;;;;;6.28;100.00;99256.03;4881682;29;20217;-71
2023/01/09 06:08:04;;;;;;;18.23;14.75;;;;;;;6.24;100.00;99244.06;4895262;29;20665;-70
2023/01/09 06:10:34;;;;;;;19.42;14.40;;;;;;;6.33;100.00;99258.91;4897574;29;20307;-70
2023/01/09 06:13:03;;;;;;;14.18;12.00;;;;;;;6.21;100.00;99252.53;4899221;29;20196;-70
2023/01/09 06:15:32;;;;;;;16.60;13.40;;;;;;;6.24;100.00;99249.44;4881869;29;20277;-71
2023/01/09 06:18:01;;;;;;;20.23;15.00;;;;;;;6.21;100.00;99244.47;4881888;29;20230;-70
2023/01/09 06:20:30;;;;;;;21.92;14.45;;;;;;;6.11;100.00;99238.72;4881814;29;20209;-71
2023/01/09 06:23:00;;;;;;;21.80;15.70;;;;;;;6.19;100.00;99238.50;4896462;29;20258;-70
2023/01/09 06:25:30;;;;;;;24.02;13.48;;;;;;;6.27;100.00;99237.44;4893341;29;20221;-69
2023/01/09 06:27:59;;;;;;;20.40;14.23;;;;;;;6.28;100.00;99234.53;4897446;29;20206;-71
2023/01/09 06:30:29;;;;;;;21.30;14.95;;;;;;;6.25;100.00;99234.94;4900505;29;20576;-70
2023/01/09 06:32:58;;;;;;;22.58;13.60;;;;;;;6.27;100.00;99232.06;4896295;29;20198;-71
2023/01/09 06:35:27;;;;;;;19.65;14.30;;;;;;;6.24;100.00;99233.31;4897096;29;20248;-71
2023/01/09 06:37:57;;;;;;;21.98;15.02;;;;;;;6.28;100.00;99237.22;4893642;29;20673;-70
2023/01/09 06:40:26;;;;;;;17.67;13.50;;;;;;;6.23;100.00;99238.91;4892891;29;20213;-70
2023/01/09 06:42:57;;;;;;;23.23;13.45;;;;;;;6.38;100.00;99232.22;4897604;29;20198;-71
2023/01/09 06:45:26;;;;;;;21.52;14.80;;;;;;;6.29;100.00;99224.63;4881214;29;20231;-71
2023/01/09 06:47:55;;;;;;;22.55;15.90;;;;;;;6.34;100.00;99230.97;4897629;29;20669;-71
2023/01/09 06:50:25;;;;;;;21.10;14.23;;;;;;;6.61;100.00;99230.81;4882134;29;20639;-70
2023/01/09 06:52:54;;;;;;;26.23;15.60;;;;;;;6.50;100.00;99227.78;4881931;29;20228;-69
2023/01/09 06:55:25;;;;;;;22.13;15.75;;;;;;;6.46;100.00;99225.75;4887323;29;20229;-70
2023/01/09 06:57:54;;;;;;;21.50;15.40;;;;;;;6.30;100.00;99227.06;4879585;29;20285;-69
2023/01/09 07:00:26;;;;;;;27.42;14.57;;;;;;;6.26;100.00;99220.47;4899122;29;20200;-71
2023/01/09 07:02:55;;;;;;;22.60;14.65;;;;;;;6.37;100.00;99219.81;4885026;29;20577;-71
2023/01/09 07:05:24;;;;;;;19.20;13.85;;;;;;;6.36;100.00;99212.78;4881899;29;20222;-70
2023/01/09 07:07:53;;;;;;;23.95;15.68;;;;;;;6.38;100.00;99217.94;4904633;29;20270;-74
2023/01/09 07:10:23;;;;;;;19.25;13.15;;;;;;;6.42;100.00;99216.47;4883004;29;20209;-74
2023/01/09 07:12:52;;;;;;;25.50;14.93;;;;;;;6.31;100.00;99212.59;4882093;29;20225;-74
2023/01/09 07:15:22;;;;;;;18.92;13.02;;;;;;;6.33;100.00;99209.72;4888125;29;20697;-75
2023/01/09 07:17:53;;;;;;;20.98;13.07;;;;;;;6.20;100.00;99215.97;4897438;29;20226;-74
2023/01/09 07:20:23;;;;;;;21.20;14.48;;;;;;;6.23;100.00;99209.34;4881678;29;20209;-75
2023/01/09 07:22:52;;;;;;;17.80;15.45;;;;;;;6.37;100.00;99211.75;4882144;29;20217;-76
2023/01/09 07:25:22;;;;;;;19.20;14.55;;;;;;;6.47;100.00;99219.34;4883031;29;20230;-76
2023/01/09 07:27:51;;;;;;;20.63;14.65;;;;;;;6.31;100.00;99204.56;4887215;29;20262;-75
2023/01/09 07:30:20;;;;;;;25.55;15.05;;;;;;;6.37;100.00;99209.06;4889080;29;20194;-75
2023/01/09 07:32:49;;;;;;;23.98;13.77;;;;;;;6.38;100.00;99223.31;4910727;29;20611;-74
2023/01/09 07:35:20;;;;;;;23.33;12.93;;;;;;;6.31;100.00;99217.97;4887324;29;20230;-75
2023/01/09 07:37:49;;;;;;;28.75;15.23;;;;;;;6.25;100.00;99220.69;4883664;29;20230;-74
2023/01/09 07:40:18;;;;;;;19.13;13.63;;;;;;;6.23;100.00;99228.97;4903603;29;20551;-75
2023/01/09 07:42:48;;;;;;;19.17;13.68;;;;;;;6.24;100.00;99221.75;4903486;29;20657;-75
2023/01/09 07:45:17;;;;;;;26.30;16.60;;;;;;;6.24;100.00;99222.59;4884889;29;20230;-74
2023/01/09 07:47:46;;;;;;;16.33;12.63;;;;;;;6.26;100.00;99225.84;4885682;29;20214;-75
2023/01/09 07:50:15;;;;;;;21.05;14.95;;;;;;;6.33;100.00;99225.84;4884353;29;20226;-76
2023/01/09 07:52:47;;;;;;;17.33;13.80;;;;;;;6.38;100.00;99216.09;4886242;29;20198;-75
2023/01/09 07:55:16;;;;;;;17.27;13.13;;;;;;;6.42;100.00;99224.53;4896952;29;20233;-75
2023/01/09 07:57:49;;;;;;;20.95;16.10;;;;;;;6.56;100.00;99228.78;4880721;29;20666;-76
2023/01/09 08:00:19;;;;;;;23.50;15.55;;;;;;;6.45;100.00;99238.34;4880953;29;20202;-75
2023/01/09 08:02:53;;;;;;;24.95;16.35;;;;;;;6.51;100.00;99236.69;4881005;29;20614;-76
2023/01/09 08:05:22;;;;;;;20.23;15.00;;;;;;;6.48;100.00;99231.75;4881493;29;20226;-72
2023/01/09 08:07:53;;;;;;;17.35;12.95;;;;;;;6.52;100.00;99241.84;4884109;29;20222;-74
2023/01/09 08:10:22;;;;;;;22.75;15.95;;;;;;;6.53;100.00;99239.97;4884585;29;20205;-75
2023/01/09 08:12:52;;;;;;;23.05;15.38;;;;;;;6.61;100.00;99244.25;4884163;29;20193;-75
2023/01/09 08:15:21;;;;;;;18.17;13.82;;;;;;;6.47;100.00;99236.28;4889600;29;20229;-75
2023/01/09 08:17:50;;;;;;;21.90;15.00;;;;;;;6.45;100.00;99232.97;4901129;29;20661;-75
2023/01/09 08:20:20;;;;;;;23.55;15.13;;;;;;;6.52;100.00;99241.00;4886331;29;20210;-74
2023/01/09 08:22:49;;;;;;;23.08;14.02;;;;;;;6.61;100.00;99245.09;4884144;29;20249;-75
2023/01/09 08:25:20;;;;;;;22.45;14.77;;;;;;;6.70;100.00;99240.28;4901130;29;20697;-74
2023/01/09 08:27:49;;;;;;;22.88;15.00;;;;;;;6.66;100.00;99242.56;4900030;29;20242;-74
2023/01/09 08:30:19;;;;;;;18.27;13.25;;;;;;;6.51;100.00;99240.19;4902357;29;20202;-76
2023/01/09 08:32:53;;;;;;;19.63;13.23;;;;;;;6.62;100.00;99241.38;4884286;29;20711;-74
2023/01/09 08:35:23;;;;;;;19.40;14.98;;;;;;;6.68;100.00;99234.31;4900787;29;20277;-75
2023/01/09 08:37:52;;;;;;;21.70;14.55;;;;;;;6.87;100.00;99242.19;4884016;29;20229;-73
2023/01/09 08:40:23;;;;;;;23.65;16.25;;;;;;;6.77;100.00;99243.75;4900822;29;20201;-75
2023/01/09 08:48:25;;;;;;;20.35;14.05;;;;;;;6.91;100.00;99251.50;4899357;29;20218;-76
2023/01/09 08:50:55;;;;;;;22.77;16.52;;;;;;;6.97;100.00;99261.38;4900332;29;20253;-76
2023/01/09 08:53:24;;;;;;;21.05;13.23;;;;;;;6.90;100.00;99265.16;4901645;29;20285;-75
2023/01/09 08:55:54;;;;;;;18.80;13.25;;;;;;;6.80;100.00;99267.50;4901663;29;20221;-76
2023/01/09 08:58:24;;;;;;;19.70;13.63;;;;;;;6.77;100.00;99262.56;4901523;29;20202;-74
2023/01/09 09:00:53;;;;;;;21.38;13.63;;;;;;;6.90;100.00;99275.91;4900592;29;20198;-76
2023/01/09 09:03:22;;;;;;;19.33;14.75;;;;;;;6.93;100.00;99265.53;4901362;29;20206;-75
2023/01/09 09:05:51;;;;;;;19.52;14.18;;;;;;;6.77;100.00;99267.94;4885559;29;20259;-75
2023/01/09 09:08:21;;;;;;;21.98;14.85;;;;;;;6.98;100.00;99265.72;4885486;29;20234;-75
2023/01/09 09:10:50;;;;;;;20.25;14.25;;;;;;;7.14;100.00;99276.97;4903262;29;20658;-74
2023/01/09 09:13:20;;;;;;;19.85;13.18;;;;;;;7.02;100.00;99276.84;4886969;29;20297;-74
2023/01/09 09:15:50;;;;;;;22.13;13.32;;;;;;;7.01;100.00;99283.28;4888414;29;20641;-73
2023/01/09 09:18:19;;;;;;;21.98;13.50;;;;;;;7.03;100.00;99275.81;4896807;29;20266;-74
2023/01/09 09:20:48;;;;;;;18.92;11.70;;;;;;;7.15;100.00;99268.69;4903752;29;20234;-72
2023/01/09 09:23:17;;;;;;;26.50;14.00;;;;;;;7.15;100.00;99276.75;4894363;29;20226;-73
2023/01/09 09:25:47;;;;;;;19.02;13.07;;;;;;;7.24;100.00;99283.50;4890759;29;20237;-75
2023/01/09 09:28:17;;;;;;;16.63;11.93;;;;;;;7.15;100.00;99284.00;4899336;29;20653;-73
2023/01/09 09:30:47;;;;;;;18.85;13.18;;;;;;;7.08;100.00;99281.34;4900447;29;20203;-76
2023/01/09 09:33:17;;;;;;;19.33;13.38;;;;;;;7.08;100.00;99289.44;4876820;29;20210;-75
2023/01/09 09:35:46;;;;;;;16.45;13.32;;;;;;;7.02;100.00;99290.28;4883195;29;20258;-73
2023/01/09 09:38:15;;;;;;;23.48;13.82;;;;;;;7.03;100.00;99297.31;4898821;29;20205;-76
2023/01/09 09:41:04;;;;;;;18.35;12.65;;;;;;;7.06;100.00;99301.47;4900931;29;20210;-74
2023/01/09 09:46:54;;;;;;;20.35;13.40;;;;;;;7.23;100.00;99289.94;4895783;29;20198;-75
2023/01/09 09:49:28;;;;;;;18.95;11.55;;;;;;;7.30;100.00;99293.41;4884357;29;20569;-75
2023/01/09 09:52:04;;;;;;;25.00;14.10;;;;;;;7.31;100.00;99284.25;4901581;29;20764;-76
2023/01/09 09:54:39;;;;;;;20.05;11.57;;;;;;;7.42;100.00;99294.31;4883892;29;20225;-75
2023/01/09 09:57:15;;;;;;;21.20;13.45;;;;;;;7.60;100.00;99298.13;4903416;29;20194;-76
2023/01/09 09:59:47;;;;;;;18.20;12.80;;;;;;;7.77;100.00;99301.88;4890529;29;20594;-76
2023/01/09 10:02:27;;;;;;;16.92;12.70;;;;;;;7.91;99.43;99314.16;4896400;29;20308;-75
2023/01/09 10:05:04;;;;;;;20.05;13.40;;;;;;;7.82;99.92;99302.03;4900225;29;20595;-76
2023/01/09 10:07:41;;;;;;;20.45;14.80;;;;;;;7.95;99.62;99309.13;4895007;29;20217;-75
2023/01/09 10:10:19;;;;;;;22.67;13.73;;;;;;;8.09;98.36;99308.75;4891935;29;20206;-76
2023/01/09 10:12:54;;;;;;;14.73;11.45;;;;;;;8.17;98.20;99315.75;4882648;29;20206;-76
2023/01/09 10:15:34;;;;;;;16.73;11.73;;;;;;;8.08;97.96;99307.16;4899464;29;20228;-75
2023/01/09 10:18:21;;;;;;;18.00;12.75;;;;;;;8.24;98.14;99305.69;4882247;29;20226;-76
2023/01/09 10:20:57;;;;;;;15.32;11.98;;;;;;;8.48;96.41;99303.97;4897295;29;20689;-76
2023/01/09 10:23:49;;;;;;;19.17;13.65;;;;;;;8.43;96.44;99310.06;4891482;29;20201;-77
2023/01/09 10:26:27;;;;;;;11.60;10.23;;;;;;;8.51;96.62;99320.53;4885506;29;20222;-75
2023/01/09 10:29:29;;;;;;;14.40;8.98;;;;;;;8.35;96.06;99323.03;4897401;29;20576;-75
2023/01/09 10:32:11;;;;;;;12.88;9.15;;;;;;;8.56;96.21;99318.00;4878634;29;20572;-75
2023/01/09 10:34:54;;;;;;;14.95;11.02;;;;;;;8.51;95.75;99327.81;4904967;29;20226;-71
2023/01/09 10:37:29;;;;;;;14.30;9.60;;;;;;;8.43;96.19;99326.22;4882274;29;20220;-75
2023/01/09 10:40:04;;;;;;;14.10;10.45;;;;;;;8.46;95.72;99330.34;4899492;29;20200;-75
2023/01/09 10:42:37;;;;;;;11.88;9.43;;;;;;;8.38;96.41;99327.94;4885008;29;20216;-75
2023/01/09 10:45:16;;;;;;;12.40;10.05;;;;;;;8.23;97.17;99334.50;4897272;29;20676;-76
2023/01/09 10:47:47;;;;;;;13.00;9.38;;;;;;;8.37;96.80;99332.53;4881536;29;20214;-75
2023/01/09 10:50:21;;;;;;;11.80;9.35;;;;;;;8.29;96.87;99330.09;4898652;29;20198;-73
2023/01/09 10:52:53;;;;;;;14.40;10.98;;;;;;;8.25;97.55;99337.00;4881958;29;20265;-76
2023/01/09 10:55:31;;;;;;;12.68;8.90;;;;;;;8.40;97.38;99352.81;4900865;29;20628;-75
2023/01/09 10:58:02;;;;;;;11.65;9.65;;;;;;;8.29;97.31;99346.25;4882241;29;20202;-74
2023/01/09 11:00:31;;;;;;;8.30;7.47;;;;;;;8.18;97.75;99344.34;4887230;29;20202;-75
2023/01/09 11:03:01;;;;;;;8.57;6.55;;;;;;;8.16;97.98;99349.13;4897331;29;20213;-75
2023/01/09 11:05:32;;;;;;;12.73;8.18;;;;;;;8.27;97.84;99348.38;4897621;29;20221;-74
2023/01/09 11:08:11;;;;;;;11.90;9.18;;;;;;;8.36;97.91;99357.84;4891174;29;20693;-75
2023/01/09 11:10:49;;;;;;;10.77;7.70;;;;;;;8.36;97.60;99367.78;4881936;29;20202;-74
2023/01/09 11:13:21;;;;;;;10.05;7.65;;;;;;;8.39;97.62;99372.72;4881534;29;20202;-75
2023/01/09 11:16:03;;;;;;;11.98;7.63;;;;;;;8.55;96.96;99366.75;4881298;29;20295;-75
2023/01/09 11:18:33;;;;;;;9.50;7.90;;;;;;;8.48;96.82;99372.19;4896886;29;20683;-76
2023/01/09 11:21:28;;;;;;;10.02;6.25;;;;;;;8.51;96.69;99370.94;4898236;29;20213;-74
2023/01/09 11:24:17;;;;;;;7.25;6.25;;;;;;;8.48;96.64;99368.69;4886750;29;20198;-75
2023/01/09 11:26:47;;;;;;;8.48;5.55;;;;;;;8.41;96.46;99379.56;4886823;29;20198;-74
2023/01/09 11:29:18;;;;;;;9.95;6.72;;;;;;;8.45;95.90;99374.53;4896880;29;20629;-75
2023/01/09 11:31:53;;;;;;;6.80;6.00;;;;;;;8.28;95.61;99377.78;4881200;29;20733;-74
2023/01/09 11:34:24;;;;;;;8.35;6.60;;;;;;;8.43;96.50;99382.00;4896811;29;20225;-75
2023/01/09 11:37:03;;;;;;;14.00;8.77;;;;;;;8.43;94.71;99384.69;4881023;29;20195;-75
2023/01/09 11:39:36;;;;;;;7.63;5.75;;;;;;;8.51;94.76;99397.91;4886516;29;20591;-76
2023/01/09 11:42:09;;;;;;;7.57;6.50;;;;;;;8.55;95.01;99397.22;4880697;29;20194;-75
2023/01/09 11:44:38;;;;;;;10.50;6.10;;;;;;;8.73;94.29;99407.16;4880969;29;20226;-75
2023/01/09 11:47:25;;;;;;;9.93;6.40;;;;;;;8.86;92.84;99408.88;4896329;29;20202;-75
2023/01/09 11:50:16;;;;;;;6.78;5.15;;;;;;;8.91;91.05;99409.84;4881131;29;20213;-74
2023/01/09 11:53:07;;;;;;;5.68;4.68;;;;;;;8.76;90.17;99400.50;4898409;29;20673;-75
2023/01/09 11:55:36;;;;;;;5.45;4.80;;;;;;;8.77;89.67;99391.34;4882017;29;20602;-74
2023/01/09 11:58:15;;;;;;;6.38;4.47;;;;;;;8.82;89.89;99394.19;4881355;29;20202;-74
2023/01/09 12:00:53;;;;;;;4.53;4.10;;;;;;;8.76;89.15;99406.72;4881709;29;20216;-74
2023/01/09 12:03:36;;;;;;;6.10;4.43;;;;;;;8.86;89.56;99407.00;4891306;29;20190;-74